createdAt,value
2018-03-06T00:01:47.274Z,3.80
2018-03-06T00:04:14.732Z,4.53
2018-03-06T00:06:42.234Z,4.17
2018-03-06T00:09:10.273Z,8.90
2018-03-06T00:11:39.612Z,5.37
2018-03-06T00:14:07.895Z,4.70
2018-03-06T00:16:37.830Z,6.30
2018-03-06T00:19:08.753Z,5.57
2018-03-06T00:21:48.189Z,4.53
2018-03-06T00:24:15.923Z,4.10
2018-03-06T00:26:43.395Z,4.90
2018-03-06T00:29:10.966Z,4.50
2018-03-06T00:31:39.278Z,5.20
2018-03-06T00:34:07.746Z,4.60
2018-03-06T00:36:38.502Z,3.90
2018-03-06T00:39:07.411Z,6.03
2018-03-06T00:41:41.879Z,8.50
2018-03-06T00:44:14.628Z,4.27
2018-03-06T00:46:43.083Z,4.73
2018-03-06T00:49:11.350Z,5.53
2018-03-06T00:51:41.909Z,7.20
2018-03-06T00:54:17.286Z,4.17
2018-03-06T00:56:48.447Z,5.87
2018-03-06T00:59:19.439Z,5.33
2018-03-06T01:01:47.625Z,6.27
2018-03-06T01:04:16.993Z,10.33
2018-03-06T01:06:48.343Z,5.00
2018-03-06T01:09:23.441Z,5.03
2018-03-06T01:11:51.571Z,5.70
2018-03-06T01:14:19.913Z,5.30
2018-03-06T01:16:48.070Z,4.80
2018-03-06T01:19:30.851Z,6.60
2018-03-06T01:22:10.923Z,4.47
2018-03-06T01:24:46.045Z,4.40
2018-03-06T01:27:23.302Z,4.97
2018-03-06T01:29:50.752Z,4.57
2018-03-06T01:32:19.498Z,4.50
2018-03-06T01:34:48.751Z,4.80
2018-03-06T01:37:20.368Z,5.00
2018-03-06T01:39:50.967Z,6.17
2018-03-06T01:42:24.033Z,5.63
2018-03-06T01:44:52.259Z,12.93
2018-03-06T01:47:22.950Z,5.07
2018-03-06T01:49:51.174Z,5.50
2018-03-06T01:52:18.945Z,5.87
2018-03-06T01:54:47.075Z,5.10
2018-03-06T01:57:33.229Z,7.00
2018-03-06T02:03:17.901Z,5.47
2018-03-06T02:05:49.051Z,7.67
2018-03-06T02:11:22.794Z,6.13
2018-03-06T02:17:19.499Z,5.87
2018-03-06T02:19:52.648Z,5.30
2018-03-06T02:22:20.888Z,5.27
2018-03-06T02:24:51.555Z,6.67
2018-03-06T02:33:58.385Z,6.23
2018-03-06T02:37:16.926Z,11.23
2018-03-06T02:45:58.120Z,10.93
2018-03-06T02:54:25.757Z,9.60
2018-03-06T02:56:55.328Z,10.80
2018-03-06T03:05:23.430Z,9.93
2018-03-06T03:07:51.065Z,7.37
2018-03-06T03:10:18.599Z,7.33
2018-03-06T03:16:54.176Z,9.50
2018-03-06T03:47:18.985Z,7.27
2018-03-06T03:52:52.459Z,7.10
2018-03-06T03:55:19.910Z,9.30
2018-03-06T03:57:48.347Z,18.03
2018-03-06T04:00:17.033Z,11.00
2018-03-06T04:02:46.056Z,7.17
2018-03-06T04:05:15.464Z,14.10
2018-03-06T04:07:50.585Z,9.80
2018-03-06T04:10:18.092Z,10.13
2018-03-06T04:15:50.005Z,9.50
2018-03-06T04:27:28.601Z,9.93
2018-03-06T04:39:52.078Z,7.83
2018-03-06T04:42:56.920Z,7.00
2018-03-06T04:51:55.712Z,9.23
2018-03-06T04:54:50.972Z,8.33
2018-03-06T05:04:13.993Z,14.90
2018-03-06T05:06:54.601Z,10.60
2018-03-06T05:09:23.980Z,10.60
2018-03-06T05:20:57.645Z,12.83
2018-03-06T05:23:25.178Z,10.93
2018-03-06T05:25:53.401Z,11.23
2018-03-06T05:31:27.067Z,15.40
2018-03-06T05:34:18.725Z,12.60
2018-03-06T05:36:49.473Z,12.90
2018-03-06T05:39:26.281Z,13.30
2018-03-06T05:42:16.140Z,13.57
2018-03-06T05:47:48.764Z,15.00
2018-03-06T05:50:24.627Z,14.10
2018-03-06T05:53:20.636Z,18.57
2018-03-06T06:02:22.505Z,15.30
2018-03-06T06:04:52.680Z,12.47
2018-03-06T06:07:24.458Z,13.93
2018-03-06T06:12:53.326Z,20.13
2018-03-06T06:15:21.576Z,16.03
2018-03-06T06:21:07.061Z,18.23
2018-03-06T06:23:48.226Z,21.60
2018-03-06T06:29:22.583Z,13.37
2018-03-06T06:31:57.616Z,16.17
2018-03-06T06:43:27.361Z,13.40
2018-03-06T06:46:23.966Z,15.63
2018-03-06T06:49:21.048Z,14.60
2018-03-06T06:51:50.433Z,17.67
2018-03-06T07:00:22.682Z,17.57
2018-03-06T07:02:51.745Z,16.80
2018-03-06T07:05:19.305Z,15.83
2018-03-06T07:07:50.301Z,20.63
2018-03-06T07:14:21.717Z,18.63
2018-03-06T07:25:52.449Z,14.50
2018-03-06T07:28:54.142Z,11.17
2018-03-06T07:49:19.122Z,12.53
2018-03-06T07:51:48.804Z,15.10
2018-03-06T07:54:23.696Z,14.50
2018-03-06T07:57:21.316Z,16.07
2018-03-06T08:00:18.884Z,15.40
2018-03-06T08:02:49.134Z,15.60
2018-03-06T08:05:25.221Z,16.30
2018-03-06T08:08:18.894Z,15.67
2018-03-06T08:11:19.934Z,13.83
2018-03-06T08:13:47.416Z,12.37
2018-03-06T08:16:17.634Z,20.57
2018-03-06T08:21:51.343Z,22.00
2018-03-06T08:27:25.597Z,18.17
2018-03-06T08:29:53.089Z,21.30
2018-03-06T08:35:28.853Z,18.83
2018-03-06T08:37:57.242Z,17.37
2018-03-06T08:40:25.482Z,17.43
2018-03-06T08:45:56.917Z,18.47
2018-03-06T08:48:24.445Z,17.37
2018-03-06T08:54:18.859Z,18.70
2018-03-06T08:56:49.130Z,16.33
2018-03-06T08:59:52.928Z,24.00
2018-03-06T09:05:21.685Z,17.37
2018-03-06T09:10:52.484Z,17.97
2018-03-06T09:13:21.658Z,17.60
2018-03-06T09:15:49.994Z,22.63
2018-03-06T09:21:21.584Z,19.57
2018-03-06T09:23:52.043Z,20.03
2018-03-06T09:29:20.272Z,18.63
2018-03-06T09:31:51.171Z,18.50
2018-03-06T09:34:20.363Z,19.70
2018-03-06T09:36:55.136Z,19.97
2018-03-06T09:39:22.549Z,17.17
2018-03-06T09:41:52.265Z,24.13
2018-03-06T09:47:52.478Z,25.10
2018-03-06T09:50:20.723Z,19.97
2018-03-06T09:52:49.678Z,18.70
2018-03-06T09:55:24.334Z,20.17
2018-03-06T09:57:51.937Z,18.37
2018-03-06T10:00:21.581Z,20.50
2018-03-06T10:02:49.106Z,24.50
2018-03-06T10:05:18.643Z,20.33
2018-03-06T10:07:51.662Z,18.13
2018-03-06T10:10:19.239Z,24.20
2018-03-06T10:12:48.701Z,23.97
2018-03-06T10:15:21.911Z,18.90
2018-03-06T10:17:49.433Z,21.53
2018-03-06T10:20:19.845Z,27.93
2018-03-06T10:23:21.513Z,21.90
2018-03-06T10:25:49.812Z,23.10
2018-03-06T10:31:36.543Z,23.47
2018-03-06T10:34:13.794Z,21.80
2018-03-06T10:36:49.108Z,21.40
2018-03-06T10:39:19.417Z,18.80
2018-03-06T10:44:49.118Z,22.97
2018-03-06T10:50:20.489Z,15.10
2018-03-06T10:52:51.628Z,15.57
2018-03-06T10:55:19.445Z,17.97
2018-03-06T10:57:47.461Z,17.90
2018-03-06T11:00:24.338Z,17.93
2018-03-06T11:02:53.869Z,15.60
2018-03-06T11:05:53.699Z,16.33
2018-03-06T11:08:21.496Z,16.73
2018-03-06T11:10:50.985Z,15.70
2018-03-06T11:13:23.346Z,14.93
2018-03-06T11:15:51.056Z,17.43
2018-03-06T11:18:21.130Z,16.73
2018-03-06T11:29:49.779Z,16.50
2018-03-06T11:32:56.884Z,17.13
2018-03-06T11:41:20.420Z,14.60
2018-03-06T11:43:54.205Z,14.73
2018-03-06T11:46:21.810Z,16.17
2018-03-06T11:48:50.324Z,18.30
2018-03-06T11:54:28.272Z,16.03
2018-03-06T11:59:53.281Z,13.47
2018-03-06T12:02:20.822Z,14.70
2018-03-06T12:04:57.852Z,21.77
2018-03-06T12:07:25.480Z,15.40
2018-03-06T12:10:18.228Z,14.20
2018-03-06T12:15:50.539Z,14.87
2018-03-06T12:21:54.832Z,15.20
2018-03-06T12:24:22.285Z,16.27
2018-03-06T12:26:50.605Z,14.83
2018-03-06T12:41:51.194Z,12.87
2018-03-06T12:44:57.839Z,12.80
2018-03-06T12:47:25.325Z,12.57
